createdAt,value
2019-02-21T00:01:30.743Z,31.97
2019-02-21T00:08:28.369Z,30.30
2019-02-21T00:15:26.859Z,24.70
2019-02-21T00:22:26.123Z,25.47
2019-02-21T00:29:23.499Z,34.50
2019-02-21T00:36:21.135Z,33.10
2019-02-21T00:43:18.666Z,26.30
2019-02-21T00:50:15.702Z,34.13
2019-02-21T00:57:12.990Z,28.47
2019-02-21T01:04:10.721Z,28.67
2019-02-21T01:11:08.680Z,27.23
2019-02-21T01:18:06.165Z,30.50
2019-02-21T01:25:03.704Z,31.63
2019-02-21T01:32:00.847Z,28.87
2019-02-21T01:38:58.166Z,31.47
2019-02-21T01:45:54.968Z,31.23
2019-02-21T01:52:52.224Z,27.77
2019-02-21T01:59:50.709Z,26.73
2019-02-21T02:06:45.931Z,26.77
2019-02-21T02:13:50.137Z,26.43
2019-02-21T02:20:53.799Z,31.13
2019-02-21T02:27:51.339Z,30.53
2019-02-21T02:34:48.691Z,29.93
2019-02-21T02:41:45.600Z,27.33
2019-02-21T02:48:42.924Z,30.57
2019-02-21T02:55:39.640Z,27.03
2019-02-21T03:02:36.367Z,33.13
2019-02-21T03:09:33.364Z,35.23
2019-02-21T03:16:30.065Z,35.47
2019-02-21T03:23:27.539Z,36.23
2019-02-21T03:30:25.621Z,33.03
2019-02-21T03:37:22.931Z,30.17
2019-02-21T03:44:20.832Z,30.47
2019-02-21T03:51:18.447Z,31.63
2019-02-21T03:58:16.007Z,30.77
2019-02-21T04:05:12.792Z,33.37
2019-02-21T04:12:09.566Z,32.67
2019-02-21T04:19:07.327Z,30.92
2019-02-21T04:26:04.524Z,37.27
2019-02-21T04:33:02.124Z,33.90
2019-02-21T04:39:59.681Z,37.50
2019-02-21T04:46:57.348Z,32.13
2019-02-21T04:53:54.324Z,25.23
2019-02-21T05:00:51.583Z,28.43
2019-02-21T05:07:48.676Z,25.73
2019-02-21T05:14:33.607Z,27.87
2019-02-21T05:21:37.808Z,29.60
2019-02-21T05:28:35.248Z,32.23
2019-02-21T05:35:33.595Z,22.63
2019-02-21T05:42:35.594Z,28.60
2019-02-21T05:49:34.919Z,25.17
2019-02-21T05:56:51.369Z,25.50
2019-02-21T06:03:49.732Z,25.83
2019-02-21T06:11:07.200Z,27.03
2019-02-21T06:18:23.551Z,29.13
2019-02-21T06:25:22.414Z,29.50
2019-02-21T06:32:19.884Z,28.30
2019-02-21T06:39:16.654Z,29.53
2019-02-21T06:46:13.868Z,26.57
2019-02-21T06:53:11.319Z,25.03
2019-02-21T07:00:08.283Z,30.10
2019-02-21T07:07:05.076Z,24.50
2019-02-21T07:14:02.460Z,25.30
2019-02-21T07:20:59.118Z,25.33
2019-02-21T07:27:58.241Z,23.20
2019-02-21T07:34:54.607Z,26.70
2019-02-21T07:41:51.991Z,23.50
2019-02-21T07:48:49.197Z,26.80
2019-02-21T07:55:45.919Z,24.47
2019-02-21T08:02:43.650Z,20.83
2019-02-21T08:09:41.751Z,24.27
2019-02-21T08:16:38.937Z,20.10
2019-02-21T08:23:35.631Z,20.72
2019-02-21T08:30:33.109Z,24.37
2019-02-21T08:37:30.775Z,21.03
2019-02-21T08:44:28.899Z,22.50
2019-02-21T08:51:26.352Z,25.60
2019-02-21T08:58:23.884Z,23.00
2019-02-21T09:05:20.680Z,26.48
2019-02-21T09:12:21.154Z,23.60
2019-02-21T09:19:18.008Z,24.37
2019-02-21T09:26:14.732Z,20.02
2019-02-21T09:33:17.543Z,19.77
2019-02-21T09:40:10.963Z,19.75
2019-02-21T09:47:08.323Z,17.77
2019-02-21T09:54:05.827Z,24.13
2019-02-21T10:01:02.703Z,19.65
2019-02-21T10:07:59.678Z,21.68
2019-02-21T10:14:56.859Z,19.77
2019-02-21T10:21:55.143Z,20.95
2019-02-21T10:28:51.945Z,20.60
2019-02-21T10:35:49.343Z,26.30
2019-02-21T10:42:46.330Z,23.95
2019-02-21T10:49:43.728Z,20.57
2019-02-21T10:56:40.455Z,20.32
2019-02-21T11:03:37.196Z,21.70
2019-02-21T11:10:34.329Z,19.05
2019-02-21T11:17:31.443Z,20.25
2019-02-21T11:24:28.667Z,17.10
2019-02-21T11:31:27.748Z,14.07
2019-02-21T11:38:24.918Z,15.47
2019-02-21T11:45:21.887Z,16.07
2019-02-21T11:52:19.188Z,17.80
2019-02-21T11:59:16.895Z,16.25
2019-02-21T12:06:14.347Z,22.63
2019-02-21T12:13:11.670Z,18.70
2019-02-21T12:20:09.011Z,21.70
2019-02-21T12:27:06.355Z,16.30
2019-02-21T12:33:51.380Z,21.40
2019-02-21T12:40:36.418Z,17.07
2019-02-21T12:47:21.810Z,19.80
2019-02-21T12:54:19.244Z,20.65
2019-02-21T13:01:16.289Z,21.87
2019-02-21T13:08:01.246Z,20.48
2019-02-21T13:15:16.883Z,24.40
2019-02-21T13:22:21.230Z,23.33
2019-02-21T13:29:06.185Z,25.83
2019-02-21T13:36:10.668Z,28.38
2019-02-21T13:43:11.476Z,22.27
2019-02-21T13:49:56.365Z,22.17
2019-02-21T13:56:53.792Z,18.00
2019-02-21T14:03:50.896Z,19.17
2019-02-21T14:10:48.312Z,18.25
2019-02-21T14:17:46.678Z,16.53
2019-02-21T14:24:44.367Z,19.75
2019-02-21T14:31:41.852Z,15.27
2019-02-21T14:38:28.134Z,17.10
2019-02-21T14:45:19.110Z,12.33
2019-02-21T14:52:04.186Z,17.53
2019-02-21T14:58:49.046Z,16.17
2019-02-21T15:05:34.013Z,14.27
2019-02-21T15:12:31.541Z,20.73
2019-02-21T15:19:28.849Z,18.23
2019-02-21T15:26:26.207Z,20.73
2019-02-21T15:33:23.158Z,25.37
2019-02-21T15:40:09.676Z,20.00
2019-02-21T15:47:13.948Z,20.63
2019-02-21T15:54:16.154Z,21.77
2019-02-21T16:01:14.375Z,18.70
2019-02-21T16:08:12.048Z,20.50
2019-02-21T16:15:08.897Z,19.20
2019-02-21T16:22:05.784Z,27.60
2019-02-21T16:29:02.704Z,22.80
2019-02-21T16:36:00.095Z,29.40
2019-02-21T16:42:57.075Z,27.73
2019-02-21T16:49:42.019Z,27.17
2019-02-21T16:56:27.048Z,32.67
2019-02-21T17:03:24.016Z,25.87
2019-02-21T17:10:21.661Z,23.47
2019-02-21T17:17:19.210Z,28.90
2019-02-21T17:24:16.766Z,29.87
2019-02-21T17:31:13.915Z,28.30
2019-02-21T17:37:58.894Z,31.43
2019-02-21T17:44:43.765Z,32.83
2019-02-21T17:51:28.712Z,31.77
2019-02-21T17:58:13.718Z,35.33
2019-02-21T18:04:58.595Z,31.63
2019-02-21T18:11:56.213Z,33.27
2019-02-21T18:18:52.981Z,28.17
2019-02-21T18:25:46.530Z,31.07
2019-02-21T18:32:31.407Z,37.37
2019-02-21T18:39:16.363Z,44.07
2019-02-21T18:46:13.275Z,33.40
2019-02-21T18:53:10.362Z,38.70
2019-02-21T19:00:07.687Z,34.00
2019-02-21T19:07:05.310Z,38.70
2019-02-21T19:14:02.635Z,37.10
2019-02-21T19:20:59.367Z,34.93
2019-02-21T19:27:44.522Z,37.53
2019-02-21T19:34:29.571Z,41.13
2019-02-21T19:41:14.632Z,28.40
2019-02-21T19:48:18.903Z,38.23
2019-02-21T19:55:16.315Z,31.50
2019-02-21T20:02:01.324Z,33.43
2019-02-21T20:08:46.275Z,39.33
2019-02-21T20:15:31.204Z,36.93
2019-02-21T20:22:16.214Z,35.00
2019-02-21T20:29:01.653Z,32.83
2019-02-21T20:35:47.883Z,43.10
2019-02-21T20:42:33.064Z,42.60
2019-02-21T20:49:18.145Z,41.97
2019-02-21T20:56:06.033Z,39.53
2019-02-21T21:02:49.991Z,37.07
2019-02-21T21:09:35.007Z,41.23
2019-02-21T21:16:32.545Z,37.70
2019-02-21T21:23:29.924Z,41.47
2019-02-21T21:30:26.822Z,36.57
2019-02-21T21:37:24.149Z,32.97
2019-02-21T21:44:21.252Z,35.60
2019-02-21T21:51:18.221Z,43.60
2019-02-21T21:58:15.368Z,40.27
2019-02-21T22:05:00.333Z,43.03
2019-02-21T22:11:45.381Z,37.67
2019-02-21T22:18:30.343Z,33.80
2019-02-21T22:25:17.759Z,32.60
2019-02-21T22:32:02.715Z,32.30
2019-02-21T22:38:47.648Z,33.67
2019-02-21T22:45:45.032Z,44.30
2019-02-21T22:52:42.267Z,29.40
2019-02-21T22:59:39.858Z,40.17
2019-02-21T23:06:37.203Z,30.90
2019-02-21T23:13:22.143Z,33.80
2019-02-21T23:20:26.347Z,30.57
2019-02-21T23:27:23.721Z,36.47
2019-02-21T23:34:22.131Z,24.87
2019-02-21T23:41:18.945Z,32.60
2019-02-21T23:48:17.332Z,31.07
2019-02-21T23:55:14.850Z,25.73
